createdAt,value
2022-07-26T00:00:22.278Z,0.00
2022-07-26T00:00:54.167Z,0.00
2022-07-26T00:01:31.521Z,0.00
2022-07-26T00:01:58.302Z,0.00
2022-07-26T00:02:30.275Z,0.00
2022-07-26T00:03:02.228Z,0.00
2022-07-26T00:03:34.235Z,0.00
2022-07-26T00:04:06.285Z,0.00
2022-07-26T00:04:38.180Z,0.00
2022-07-26T00:05:10.154Z,0.00
2022-07-26T00:05:42.141Z,0.00
2022-07-26T00:06:14.182Z,0.00
2022-07-26T00:06:46.252Z,0.00
2022-07-26T00:07:18.220Z,0.00
2022-07-26T00:07:50.209Z,0.00
2022-07-26T00:08:22.149Z,0.00
2022-07-26T00:08:54.185Z,0.00
2022-07-26T00:09:26.145Z,0.00
2022-07-26T00:09:58.203Z,0.00
2022-07-26T00:10:30.198Z,0.00
2022-07-26T00:11:07.477Z,0.00
2022-07-26T00:11:34.199Z,0.00
2022-07-26T00:12:06.266Z,0.00
2022-07-26T00:12:38.159Z,0.00
2022-07-26T00:13:10.173Z,0.00
2022-07-26T00:13:42.194Z,0.00
2022-07-26T00:14:14.157Z,0.00
2022-07-26T00:14:46.201Z,0.00
2022-07-26T00:15:18.241Z,0.00
2022-07-26T00:15:50.214Z,0.00
2022-07-26T00:16:23.015Z,0.00
2022-07-26T00:16:54.242Z,0.00
2022-07-26T00:17:26.194Z,0.00
2022-07-26T00:17:58.206Z,0.00
2022-07-26T00:18:30.193Z,0.00
2022-07-26T00:19:02.165Z,0.00
2022-07-26T00:19:34.253Z,0.00
2022-07-26T00:20:06.261Z,0.00
2022-07-26T00:20:38.173Z,0.00
2022-07-26T00:21:10.213Z,0.00
2022-07-26T00:21:42.245Z,0.00
2022-07-26T00:22:14.211Z,0.00
2022-07-26T00:22:46.208Z,0.00
2022-07-26T00:23:18.225Z,0.00
2022-07-26T00:23:50.242Z,0.00
2022-07-26T00:24:22.164Z,0.00
2022-07-26T00:24:54.214Z,0.00
2022-07-26T00:25:26.195Z,0.00
2022-07-26T00:25:58.164Z,0.00
2022-07-26T00:26:30.188Z,0.00
2022-07-26T00:27:02.218Z,0.00
2022-07-26T00:27:34.166Z,0.00
2022-07-26T00:28:06.346Z,0.00
2022-07-26T00:28:38.185Z,0.00
2022-07-26T00:29:10.637Z,0.00
2022-07-26T00:29:42.163Z,0.00
2022-07-26T00:30:14.226Z,0.00
2022-07-26T00:30:46.304Z,0.00
2022-07-26T00:31:18.235Z,0.00
2022-07-26T00:31:50.286Z,0.00
2022-07-26T00:32:22.183Z,0.00
2022-07-26T00:32:54.229Z,0.00
2022-07-26T00:33:26.168Z,0.00
2022-07-26T00:33:58.220Z,0.00
2022-07-26T00:34:30.256Z,0.00
2022-07-26T00:35:02.262Z,0.00
2022-07-26T00:35:34.226Z,0.00
2022-07-26T00:36:06.314Z,0.00
2022-07-26T00:36:41.796Z,0.00
2022-07-26T00:37:10.190Z,0.00
2022-07-26T00:37:42.178Z,0.00
2022-07-26T00:38:14.227Z,0.00
2022-07-26T00:38:46.274Z,0.00
2022-07-26T00:39:18.261Z,0.00
2022-07-26T00:39:50.231Z,0.00
2022-07-26T00:40:22.232Z,0.00
2022-07-26T00:40:54.185Z,0.00
2022-07-26T00:41:26.234Z,0.00
2022-07-26T00:41:58.233Z,0.00
2022-07-26T00:42:30.245Z,0.00
2022-07-26T00:43:02.235Z,0.00
2022-07-26T00:43:34.244Z,0.00
2022-07-26T00:44:06.291Z,0.00
2022-07-26T00:44:38.213Z,0.00
2022-07-26T00:45:10.238Z,0.00
2022-07-26T00:45:42.360Z,0.00
2022-07-26T00:46:14.248Z,0.00
2022-07-26T00:46:46.290Z,0.00
2022-07-26T00:47:18.276Z,0.00
2022-07-26T00:47:50.265Z,0.00
2022-07-26T00:48:22.287Z,0.00
2022-07-26T00:48:54.271Z,0.00
2022-07-26T00:49:26.262Z,0.00
2022-07-26T00:49:58.211Z,0.00
2022-07-26T00:50:30.227Z,0.00
2022-07-26T00:51:02.308Z,0.00
2022-07-26T00:51:34.271Z,0.00
2022-07-26T00:52:06.332Z,0.00
2022-07-26T00:52:38.255Z,0.00
2022-07-26T00:53:10.305Z,0.00
2022-07-26T00:53:42.261Z,0.00
2022-07-26T00:54:14.266Z,0.00
2022-07-26T00:54:46.346Z,0.00
2022-07-26T00:55:18.216Z,0.00
2022-07-26T00:55:50.252Z,0.00
2022-07-26T00:56:22.257Z,0.00
2022-07-26T00:56:55.273Z,0.00
2022-07-26T00:57:26.255Z,0.00
2022-07-26T00:57:58.258Z,0.00
2022-07-26T00:58:30.217Z,0.00
2022-07-26T00:59:02.266Z,0.00
2022-07-26T00:59:34.264Z,0.00
2022-07-26T01:00:06.381Z,0.00
2022-07-26T01:00:38.238Z,0.00
2022-07-26T01:01:10.327Z,0.00
2022-07-26T01:01:42.513Z,0.00
2022-07-26T01:02:14.365Z,0.00
2022-07-26T01:02:46.390Z,0.00
2022-07-26T01:03:18.270Z,0.00
2022-07-26T01:03:50.251Z,0.00
2022-07-26T01:04:22.222Z,0.00
2022-07-26T01:04:54.228Z,0.00
2022-07-26T01:05:26.306Z,0.00
2022-07-26T01:05:58.326Z,0.00
2022-07-26T01:06:30.301Z,0.00
2022-07-26T01:07:02.292Z,0.00
2022-07-26T01:17:23.305Z,0.00
2022-07-26T01:17:55.243Z,0.00
2022-07-26T01:18:27.328Z,0.00
2022-07-26T01:18:59.292Z,0.00
2022-07-26T01:19:31.293Z,0.00
2022-07-26T01:20:03.288Z,0.00
2022-07-26T01:20:35.326Z,0.00
2022-07-26T01:21:09.603Z,0.00
2022-07-26T01:21:39.283Z,0.00
2022-07-26T01:22:14.566Z,0.00
2022-07-26T01:22:43.254Z,0.00
2022-07-26T01:23:15.259Z,0.00
2022-07-26T01:23:47.284Z,0.00
2022-07-26T01:24:19.289Z,0.00
2022-07-26T01:24:51.286Z,0.00
2022-07-26T01:25:23.334Z,0.00
2022-07-26T01:25:55.305Z,0.00
2022-07-26T01:26:27.293Z,0.00
2022-07-26T01:26:59.251Z,0.00
2022-07-26T01:27:34.132Z,0.00
2022-07-26T01:28:03.313Z,0.00
2022-07-26T01:28:35.254Z,0.00
2022-07-26T01:29:07.295Z,0.00
2022-07-26T01:29:39.307Z,0.00
2022-07-26T01:30:11.397Z,0.00
2022-07-26T01:30:43.306Z,0.00
2022-07-26T01:31:15.435Z,0.00
2022-07-26T01:31:47.384Z,0.00
2022-07-26T01:32:19.264Z,0.00
2022-07-26T01:32:51.308Z,0.00
2022-07-26T01:33:23.329Z,0.00
2022-07-26T01:33:55.307Z,0.00
2022-07-26T01:34:27.262Z,0.00
2022-07-26T01:34:59.321Z,0.00
2022-07-26T01:35:31.349Z,0.00
2022-07-26T01:36:03.267Z,0.00
2022-07-26T01:36:35.343Z,0.00
2022-07-26T01:37:07.351Z,0.00
2022-07-26T01:37:39.306Z,0.00
2022-07-26T01:38:11.307Z,0.00
2022-07-26T01:38:43.314Z,0.00
2022-07-26T01:39:15.353Z,0.00
2022-07-26T01:39:47.307Z,0.00
2022-07-26T01:40:19.314Z,0.00
2022-07-26T01:40:51.262Z,0.00
2022-07-26T01:41:37.119Z,0.00
2022-07-26T01:41:55.318Z,0.00
2022-07-26T01:42:27.268Z,0.00
2022-07-26T01:42:59.355Z,0.00
2022-07-26T01:43:31.367Z,0.00
2022-07-26T01:44:03.292Z,0.00
2022-07-26T01:44:35.318Z,0.00
2022-07-26T01:45:07.331Z,0.00
2022-07-26T01:45:39.378Z,0.00
2022-07-26T01:46:11.398Z,0.00
2022-07-26T01:46:43.314Z,0.00
2022-07-26T01:47:15.365Z,0.00
2022-07-26T01:47:47.308Z,0.00
2022-07-26T01:48:19.320Z,0.00
2022-07-26T01:48:51.367Z,0.00
2022-07-26T01:49:23.334Z,0.00
2022-07-26T01:49:55.279Z,0.00
2022-07-26T01:50:27.327Z,0.00
2022-07-26T01:50:59.329Z,0.00
2022-07-26T01:51:31.332Z,0.00
2022-07-26T01:52:03.327Z,0.00
2022-07-26T01:52:35.318Z,0.00
2022-07-26T01:53:07.357Z,0.00
2022-07-26T01:53:39.325Z,0.00
2022-07-26T01:54:11.746Z,0.00
2022-07-26T01:54:43.334Z,0.00
2022-07-26T01:55:15.482Z,0.00
2022-07-26T01:55:47.507Z,0.00
2022-07-26T01:56:19.607Z,0.00
2022-07-26T01:56:51.326Z,0.00
2022-07-26T01:57:23.331Z,0.00
2022-07-26T01:57:55.321Z,0.00
2022-07-26T01:58:27.283Z,0.00
2022-07-26T01:58:59.302Z,0.00
2022-07-26T01:59:31.378Z,0.00
2022-07-26T02:00:03.532Z,0.00
2022-07-26T02:00:35.343Z,0.00
2022-07-26T02:01:07.291Z,0.00
2022-07-26T02:01:40.211Z,0.00
2022-07-26T02:02:11.445Z,0.00
2022-07-26T02:02:43.503Z,0.00
2022-07-26T02:03:15.399Z,0.00
2022-07-26T02:03:47.297Z,0.00
2022-07-26T02:04:19.333Z,0.00
2022-07-26T02:04:51.333Z,0.00
2022-07-26T02:05:23.358Z,0.00
2022-07-26T02:05:55.337Z,0.00
2022-07-26T02:06:27.291Z,0.00
2022-07-26T02:06:59.346Z,0.00
2022-07-26T02:07:31.351Z,0.00
2022-07-26T02:08:03.354Z,0.00
2022-07-26T02:08:35.341Z,0.00
2022-07-26T02:09:07.700Z,0.00
2022-07-26T02:09:39.946Z,0.00
2022-07-26T02:10:12.635Z,0.00
2022-07-26T02:10:43.345Z,0.00
2022-07-26T02:11:15.311Z,0.00
2022-07-26T02:11:47.338Z,0.00
2022-07-26T02:12:19.349Z,0.00
2022-07-26T02:12:51.343Z,0.00
2022-07-26T02:13:23.322Z,0.00
2022-07-26T02:13:55.341Z,0.00
2022-07-26T02:14:28.138Z,0.00
2022-07-26T02:14:59.307Z,0.00
2022-07-26T02:15:31.624Z,0.00
2022-07-26T02:16:03.481Z,0.00
2022-07-26T02:16:35.350Z,0.00
2022-07-26T02:17:07.392Z,0.00
2022-07-26T02:17:39.327Z,0.00
2022-07-26T02:18:11.361Z,0.00
2022-07-26T02:18:43.314Z,0.00
2022-07-26T02:19:15.383Z,0.00
2022-07-26T02:19:47.357Z,0.00
2022-07-26T02:20:19.320Z,0.00
2022-07-26T02:20:51.391Z,0.00
2022-07-26T02:21:23.325Z,0.00
2022-07-26T02:21:55.355Z,0.00
2022-07-26T02:22:27.327Z,0.00
2022-07-26T02:22:59.311Z,0.00
2022-07-26T02:23:31.365Z,0.00
2022-07-26T02:24:03.378Z,0.00
2022-07-26T02:24:35.323Z,0.00
2022-07-26T02:25:07.364Z,0.00
2022-07-26T02:25:39.362Z,0.00
2022-07-26T02:26:11.328Z,0.00
2022-07-26T02:26:43.405Z,0.00
2022-07-26T02:27:15.337Z,0.00
2022-07-26T02:27:47.363Z,0.00
2022-07-26T02:28:19.367Z,0.00
2022-07-26T02:28:51.317Z,0.00
2022-07-26T02:29:23.340Z,0.00
2022-07-26T02:29:55.367Z,0.00
2022-07-26T02:30:27.540Z,0.00
2022-07-26T02:30:59.433Z,0.00
2022-07-26T02:31:32.409Z,0.00
2022-07-26T02:32:03.328Z,0.00
2022-07-26T02:32:35.366Z,0.00
2022-07-26T02:33:07.366Z,0.00
2022-07-26T02:33:40.091Z,0.00
2022-07-26T02:34:11.543Z,0.00
2022-07-26T02:34:43.379Z,0.00
2022-07-26T02:35:15.396Z,0.00
2022-07-26T02:35:47.368Z,0.00
2022-07-26T02:36:19.386Z,0.00
2022-07-26T02:36:51.386Z,0.00
2022-07-26T02:37:23.342Z,0.00
2022-07-26T02:37:55.382Z,0.00
2022-07-26T02:38:27.356Z,0.00
2022-07-26T02:38:59.420Z,0.00
2022-07-26T02:39:31.393Z,0.00
2022-07-26T02:40:03.397Z,0.00
2022-07-26T02:40:35.404Z,0.00
2022-07-26T02:41:07.402Z,0.00
2022-07-26T02:41:39.419Z,0.00
2022-07-26T02:42:11.355Z,0.00
2022-07-26T02:42:43.391Z,0.00
2022-07-26T02:43:15.372Z,0.00
2022-07-26T02:43:48.171Z,0.00
2022-07-26T02:44:19.388Z,0.00
2022-07-26T02:44:51.426Z,0.00
2022-07-26T02:45:23.529Z,0.00
2022-07-26T02:46:00.817Z,0.00
2022-07-26T02:46:27.391Z,0.00
2022-07-26T02:46:59.541Z,0.00
2022-07-26T02:47:31.400Z,0.00
2022-07-26T02:48:03.410Z,0.00
2022-07-26T02:48:35.403Z,0.00
2022-07-26T02:49:07.477Z,0.00
2022-07-26T02:49:39.353Z,0.00
2022-07-26T02:50:11.406Z,0.00
2022-07-26T02:50:43.437Z,0.00
2022-07-26T02:51:15.365Z,0.00
2022-07-26T02:51:47.406Z,0.00
2022-07-26T02:52:19.399Z,0.00
2022-07-26T02:52:51.430Z,0.00
2022-07-26T02:53:23.408Z,0.00
2022-07-26T02:53:55.401Z,0.00
2022-07-26T02:54:27.407Z,0.00
2022-07-26T02:54:59.445Z,0.00
2022-07-26T02:55:31.439Z,0.00
2022-07-26T02:56:03.393Z,0.00
2022-07-26T02:56:35.399Z,0.00
2022-07-26T02:57:07.369Z,0.00
2022-07-26T02:57:46.530Z,0.00
2022-07-26T02:58:11.375Z,0.00
2022-07-26T02:58:43.395Z,0.00
2022-07-26T02:59:15.426Z,0.00
2022-07-26T02:59:47.402Z,0.00
2022-07-26T03:00:19.621Z,0.00
2022-07-26T03:00:51.396Z,0.00
2022-07-26T03:01:23.483Z,0.00
2022-07-26T03:01:55.488Z,0.00
2022-07-26T03:02:27.540Z,0.00
2022-07-26T03:02:59.479Z,0.00
2022-07-26T03:03:31.369Z,0.00
2022-07-26T03:04:04.231Z,0.00
2022-07-26T03:04:35.460Z,0.00
2022-07-26T03:05:07.429Z,0.00
2022-07-26T03:05:39.429Z,0.00
2022-07-26T03:06:11.441Z,0.00
2022-07-26T03:06:43.439Z,0.00
2022-07-26T03:07:15.459Z,0.00
2022-07-26T03:07:47.418Z,0.00
2022-07-26T03:08:19.391Z,0.00
2022-07-26T03:08:51.392Z,0.00
2022-07-26T03:09:23.401Z,0.00
2022-07-26T03:09:55.454Z,0.00
2022-07-26T03:10:27.472Z,0.00
2022-07-26T03:10:59.456Z,0.00
2022-07-26T03:11:31.462Z,0.00
2022-07-26T03:12:03.440Z,0.00
2022-07-26T03:12:35.392Z,0.00
2022-07-26T03:13:07.389Z,0.00
2022-07-26T03:13:39.481Z,0.00
2022-07-26T03:14:11.783Z,0.00
2022-07-26T03:14:43.444Z,0.00
2022-07-26T03:15:15.626Z,0.00
2022-07-26T03:15:47.508Z,0.00
2022-07-26T03:16:22.758Z,0.00
2022-07-26T03:16:51.464Z,0.00
2022-07-26T03:17:23.416Z,0.00
2022-07-26T03:17:55.415Z,0.00
2022-07-26T03:18:27.413Z,0.00
2022-07-26T03:18:59.451Z,0.00
2022-07-26T03:19:31.412Z,0.00
2022-07-26T03:20:03.466Z,0.00
2022-07-26T03:20:35.470Z,0.00
2022-07-26T03:21:07.418Z,0.00
2022-07-26T03:21:39.428Z,0.00
2022-07-26T03:22:11.464Z,0.00
2022-07-26T03:22:43.468Z,0.00
2022-07-26T03:23:15.472Z,0.00
2022-07-26T03:23:47.432Z,0.00
2022-07-26T03:24:19.464Z,0.00
2022-07-26T03:24:51.467Z,0.00
2022-07-26T03:25:23.471Z,0.00
2022-07-26T03:25:55.429Z,0.00
2022-07-26T03:26:27.479Z,0.00
2022-07-26T03:26:59.472Z,0.00
2022-07-26T03:27:31.423Z,0.00
2022-07-26T03:28:03.441Z,0.00
2022-07-26T03:28:35.421Z,0.00
2022-07-26T03:29:07.458Z,0.00
2022-07-26T03:29:39.426Z,0.00
2022-07-26T03:30:11.641Z,0.00
2022-07-26T03:30:43.468Z,0.00
2022-07-26T03:31:15.592Z,0.00
2022-07-26T03:31:47.475Z,0.00
2022-07-26T03:32:19.524Z,0.00
2022-07-26T03:32:51.462Z,0.00
2022-07-26T03:33:23.480Z,0.00
2022-07-26T03:33:59.799Z,0.00
2022-07-26T03:34:27.481Z,0.00
2022-07-26T03:34:59.522Z,0.00
2022-07-26T03:35:31.469Z,0.00
2022-07-26T03:36:03.506Z,0.00
2022-07-26T03:36:35.510Z,0.00
2022-07-26T03:37:07.441Z,0.00
2022-07-26T03:37:46.095Z,0.00
2022-07-26T03:38:11.470Z,0.00
2022-07-26T03:38:43.474Z,0.00
2022-07-26T03:39:15.531Z,0.00
2022-07-26T03:39:47.464Z,0.00
2022-07-26T03:40:19.484Z,0.00
2022-07-26T03:40:51.487Z,0.00
2022-07-26T03:41:23.496Z,0.00
2022-07-26T03:41:55.488Z,0.00
2022-07-26T03:42:29.839Z,0.00
2022-07-26T03:42:59.484Z,0.00
2022-07-26T03:43:31.455Z,0.00
2022-07-26T03:44:03.497Z,0.00
2022-07-26T03:44:35.487Z,0.00
2022-07-26T03:45:07.630Z,0.00
2022-07-26T03:45:39.453Z,0.36
2022-07-26T03:46:11.490Z,0.00
2022-07-26T03:46:43.541Z,0.00
2022-07-26T03:47:15.467Z,0.36
2022-07-26T03:47:47.539Z,0.85
2022-07-26T03:48:19.538Z,0.85
2022-07-26T03:48:51.633Z,0.00
2022-07-26T03:49:23.589Z,0.85
2022-07-26T03:49:55.576Z,0.85
2022-07-26T03:50:27.496Z,1.22
2022-07-26T03:50:59.614Z,1.22
2022-07-26T03:51:31.524Z,1.22
2022-07-26T03:52:03.582Z,0.85
2022-07-26T03:52:35.524Z,1.22
2022-07-26T03:53:07.487Z,2.08
2022-07-26T03:53:39.541Z,2.08
2022-07-26T03:54:11.873Z,2.08
2022-07-26T03:54:43.523Z,2.94
2022-07-26T03:55:15.547Z,2.08
2022-07-26T03:55:47.493Z,2.94
2022-07-26T03:56:19.493Z,2.57
2022-07-26T03:56:51.505Z,2.57
2022-07-26T03:57:23.499Z,3.79
2022-07-26T03:57:55.530Z,3.43
2022-07-26T03:58:27.533Z,3.43
2022-07-26T03:58:59.499Z,4.28
2022-07-26T03:59:31.609Z,3.79
2022-07-26T04:00:03.775Z,4.77
2022-07-26T04:00:35.577Z,5.14
2022-07-26T04:01:07.510Z,5.14
2022-07-26T04:01:39.696Z,5.14
2022-07-26T04:02:11.686Z,5.99
2022-07-26T04:02:43.590Z,5.99
2022-07-26T04:03:15.514Z,6.48
2022-07-26T04:03:47.981Z,6.48
2022-07-26T04:04:19.577Z,7.34
2022-07-26T04:04:51.490Z,6.85
2022-07-26T04:05:26.038Z,7.70
2022-07-26T04:05:55.539Z,7.70
2022-07-26T04:06:27.498Z,8.19
2022-07-26T04:07:03.203Z,8.19
2022-07-26T04:07:31.551Z,8.19
2022-07-26T04:08:03.597Z,9.05
2022-07-26T04:08:35.492Z,9.91
2022-07-26T04:09:07.968Z,10.39
2022-07-26T04:09:39.562Z,10.77
2022-07-26T04:10:11.496Z,11.62
2022-07-26T04:10:44.308Z,11.62
2022-07-26T04:11:15.564Z,12.97
2022-07-26T04:11:47.556Z,12.97
2022-07-26T04:12:19.546Z,13.82
2022-07-26T04:12:51.501Z,13.82
2022-07-26T04:13:23.556Z,14.68
2022-07-26T04:13:55.517Z,15.17
2022-07-26T04:14:27.551Z,15.53
2022-07-26T04:14:59.517Z,16.39
2022-07-26T04:15:31.728Z,16.88
2022-07-26T04:16:03.599Z,17.25
2022-07-26T04:16:38.876Z,17.73
2022-07-26T04:17:07.656Z,19.08
2022-07-26T04:17:39.559Z,19.08
2022-07-26T04:18:11.563Z,19.08
2022-07-26T04:18:43.612Z,19.94
2022-07-26T04:19:15.575Z,19.94
2022-07-26T04:19:47.553Z,20.80
2022-07-26T04:20:19.603Z,21.16
2022-07-26T04:20:51.564Z,21.65
2022-07-26T04:21:23.612Z,21.16
2022-07-26T04:21:55.629Z,22.87
2022-07-26T04:22:27.521Z,22.87
2022-07-26T04:22:59.557Z,23.85
2022-07-26T04:23:31.612Z,24.71
2022-07-26T04:24:03.625Z,24.22
2022-07-26T04:24:35.562Z,24.71
2022-07-26T04:25:07.531Z,24.71
2022-07-26T04:25:41.307Z,24.71
2022-07-26T04:26:11.534Z,25.56
2022-07-26T04:26:43.535Z,25.56
2022-07-26T04:27:15.624Z,25.07
2022-07-26T04:27:47.541Z,25.56
2022-07-26T04:28:19.579Z,25.56
2022-07-26T04:28:51.572Z,26.79
2022-07-26T04:29:23.538Z,26.79
2022-07-26T04:29:55.540Z,26.42
2022-07-26T04:30:27.890Z,27.28
2022-07-26T04:30:59.712Z,27.65
2022-07-26T04:31:34.952Z,28.14
2022-07-26T04:32:03.643Z,28.63
2022-07-26T04:32:35.587Z,28.63
2022-07-26T04:33:07.546Z,28.63
2022-07-26T04:33:39.596Z,28.63
2022-07-26T04:34:11.862Z,28.99
2022-07-26T04:34:43.591Z,29.48
2022-07-26T04:35:15.549Z,29.85
2022-07-26T04:35:47.586Z,28.99
2022-07-26T04:36:19.608Z,30.34
2022-07-26T04:36:51.608Z,30.70
2022-07-26T04:37:23.598Z,29.48
2022-07-26T04:37:55.589Z,30.34
2022-07-26T04:38:27.596Z,29.48
2022-07-26T04:38:59.627Z,29.85
2022-07-26T04:39:31.599Z,29.48
2022-07-26T04:40:03.550Z,30.34
2022-07-26T04:40:40.700Z,30.70
2022-07-26T04:41:07.593Z,30.70
2022-07-26T04:41:39.542Z,30.34
2022-07-26T04:42:11.598Z,31.19
2022-07-26T04:42:43.583Z,31.19
2022-07-26T04:43:16.212Z,31.19
2022-07-26T04:43:47.646Z,31.19
2022-07-26T04:44:19.649Z,31.56
2022-07-26T04:44:51.589Z,32.05
2022-07-26T04:45:23.786Z,31.56
2022-07-26T04:45:55.688Z,33.39
2022-07-26T04:46:27.612Z,33.39
2022-07-26T04:46:59.575Z,33.39
2022-07-26T04:47:31.557Z,33.76
2022-07-26T04:48:03.661Z,33.76
2022-07-26T04:48:35.596Z,33.76
2022-07-26T04:49:07.682Z,34.25
2022-07-26T04:49:39.638Z,33.76
2022-07-26T04:50:11.591Z,33.76
2022-07-26T04:50:43.591Z,34.25
2022-07-26T04:51:15.645Z,34.62
2022-07-26T04:51:47.686Z,35.11
2022-07-26T04:52:19.709Z,34.62
2022-07-26T04:52:51.609Z,35.48
2022-07-26T04:53:23.663Z,35.48
2022-07-26T04:53:55.659Z,35.48
2022-07-26T04:54:27.601Z,35.48
2022-07-26T04:54:59.605Z,35.11
2022-07-26T04:55:31.609Z,36.33
2022-07-26T04:56:03.614Z,35.48
2022-07-26T04:56:35.569Z,35.97
2022-07-26T04:57:07.618Z,36.33
2022-07-26T04:57:39.647Z,36.33
2022-07-26T04:58:11.648Z,35.97
2022-07-26T04:58:43.603Z,36.33
2022-07-26T04:59:19.826Z,37.68
2022-07-26T04:59:58.117Z,37.19
2022-07-26T05:00:22.548Z,37.19
2022-07-26T05:01:10.415Z,37.19
2022-07-26T05:01:23.674Z,37.19
2022-07-26T05:01:55.664Z,38.17
2022-07-26T05:02:27.752Z,37.19
2022-07-26T05:02:59.704Z,38.53
2022-07-26T05:03:31.679Z,38.53
2022-07-26T05:04:03.635Z,37.68
2022-07-26T05:04:35.624Z,38.17
2022-07-26T05:05:07.630Z,38.53
2022-07-26T05:05:39.636Z,39.39
2022-07-26T05:06:11.652Z,39.02
2022-07-26T05:06:43.650Z,39.39
2022-07-26T05:07:15.629Z,39.88
2022-07-26T05:07:47.586Z,39.88
2022-07-26T05:08:19.639Z,40.24
2022-07-26T05:08:51.629Z,40.24
2022-07-26T05:09:23.640Z,40.73
2022-07-26T05:09:55.630Z,40.73
2022-07-26T05:10:27.622Z,41.10
2022-07-26T05:10:59.599Z,41.10
2022-07-26T05:11:31.698Z,41.96
2022-07-26T05:12:03.678Z,41.96
2022-07-26T05:12:35.625Z,42.45
2022-07-26T05:13:07.619Z,42.45
2022-07-26T05:13:40.146Z,43.31
2022-07-26T05:14:11.890Z,43.31
2022-07-26T05:14:43.576Z,43.80
2022-07-26T05:15:15.825Z,43.31
2022-07-26T05:15:47.629Z,43.31
2022-07-26T05:16:19.669Z,44.65
2022-07-26T05:16:51.716Z,44.65
2022-07-26T05:17:23.666Z,45.51
2022-07-26T05:17:55.642Z,45.87
2022-07-26T05:18:27.678Z,45.51
2022-07-26T05:18:59.670Z,45.87
2022-07-26T05:19:31.639Z,45.87
2022-07-26T05:20:03.776Z,47.71
2022-07-26T05:20:35.639Z,47.71
2022-07-26T05:21:07.634Z,46.73
2022-07-26T05:21:39.591Z,46.73
2022-07-26T05:22:11.641Z,46.73
2022-07-26T05:22:43.672Z,47.71
2022-07-26T05:23:15.676Z,47.71
2022-07-26T05:23:47.676Z,47.71
2022-07-26T05:24:19.627Z,47.22
2022-07-26T05:24:51.680Z,49.42
2022-07-26T05:25:23.660Z,49.79
2022-07-26T05:25:55.610Z,49.79
2022-07-26T05:26:27.677Z,50.65
2022-07-26T05:26:59.654Z,51.14
2022-07-26T05:27:31.598Z,51.14
2022-07-26T05:28:03.653Z,51.99
2022-07-26T05:28:35.688Z,52.85
2022-07-26T05:29:07.677Z,53.34
2022-07-26T05:29:39.741Z,53.34
2022-07-26T05:30:11.816Z,54.19
2022-07-26T05:30:43.680Z,54.56
2022-07-26T05:31:15.738Z,55.90
2022-07-26T05:31:47.706Z,56.76
2022-07-26T05:32:19.620Z,58.48
2022-07-26T05:32:51.639Z,59.82
2022-07-26T05:33:23.617Z,61.53
2022-07-26T05:33:55.603Z,63.24
2022-07-26T05:34:27.685Z,65.94
2022-07-26T05:34:59.643Z,66.80
2022-07-26T05:35:31.647Z,68.87
2022-07-26T05:36:03.647Z,70.22
2022-07-26T05:36:35.646Z,71.93
2022-07-26T05:37:07.663Z,74.14
2022-07-26T05:37:39.692Z,76.34
2022-07-26T05:38:11.644Z,78.41
2022-07-26T05:38:43.597Z,81.97
2022-07-26T05:39:16.203Z,84.04
2022-07-26T05:39:47.665Z,85.88
2022-07-26T05:40:19.655Z,86.73
2022-07-26T05:40:51.619Z,87.10
2022-07-26T05:41:23.619Z,88.45
2022-07-26T05:41:55.608Z,89.31
2022-07-26T05:42:27.630Z,89.31
2022-07-26T05:42:59.655Z,89.79
2022-07-26T05:43:40.966Z,91.51
2022-07-26T05:44:03.666Z,94.56
2022-07-26T05:44:35.613Z,97.13
2022-07-26T05:45:07.797Z,99.70
2022-07-26T05:45:39.769Z,101.90
2022-07-26T05:46:11.923Z,103.61
2022-07-26T05:46:43.704Z,102.76
2022-07-26T05:47:15.655Z,103.13
2022-07-26T05:47:47.632Z,104.48
2022-07-26T05:48:19.624Z,104.96
2022-07-26T05:48:51.677Z,106.19
2022-07-26T05:49:23.755Z,106.19
2022-07-26T05:49:55.654Z,106.68
2022-07-26T05:50:27.613Z,107.04
2022-07-26T05:50:59.670Z,107.53
2022-07-26T05:51:31.670Z,107.04
2022-07-26T05:52:03.677Z,107.90
2022-07-26T05:52:35.668Z,106.68
2022-07-26T05:53:07.666Z,105.82
2022-07-26T05:53:39.657Z,107.04
2022-07-26T05:54:11.859Z,108.88
2022-07-26T05:54:43.621Z,111.44
2022-07-26T05:55:15.664Z,113.16
2022-07-26T05:55:47.714Z,117.44
2022-07-26T05:56:19.695Z,121.85
2022-07-26T05:56:51.678Z,123.56
2022-07-26T05:57:23.757Z,121.36
2022-07-26T05:57:55.699Z,122.34
2022-07-26T05:58:27.749Z,125.76
2022-07-26T05:58:59.701Z,130.90
2022-07-26T05:59:31.714Z,133.95
2022-07-26T06:00:03.975Z,138.73
2022-07-26T06:00:35.709Z,139.22
2022-07-26T06:01:07.719Z,140.07
2022-07-26T06:01:39.767Z,140.44
2022-07-26T06:02:11.816Z,138.73
2022-07-26T06:02:43.811Z,137.87
2022-07-26T06:03:15.673Z,137.51
2022-07-26T06:03:47.745Z,135.30
2022-07-26T06:04:19.830Z,139.22
2022-07-26T06:04:51.731Z,139.58
2022-07-26T06:05:23.773Z,138.36
2022-07-26T06:05:55.747Z,163.93
2022-07-26T06:06:27.680Z,215.92
2022-07-26T06:06:59.726Z,177.75
2022-07-26T06:07:31.711Z,210.78
2022-07-26T06:08:03.713Z,244.18
2022-07-26T06:08:35.703Z,266.32
2022-07-26T06:09:07.718Z,255.93
2022-07-26T06:09:39.811Z,138.36
2022-07-26T06:10:11.669Z,136.16
2022-07-26T06:10:43.711Z,283.69
2022-07-26T06:11:15.718Z,287.12
2022-07-26T06:11:47.723Z,291.89
2022-07-26T06:12:19.724Z,293.24
2022-07-26T06:12:51.712Z,294.95
2022-07-26T06:13:23.728Z,298.86
2022-07-26T06:13:56.752Z,298.01
2022-07-26T06:14:27.750Z,304.00
2022-07-26T06:14:59.794Z,308.78
2022-07-26T06:15:31.883Z,312.69
2022-07-26T06:16:03.771Z,314.89
2022-07-26T06:16:35.785Z,318.81
2022-07-26T06:17:07.811Z,323.58
2022-07-26T06:17:39.755Z,175.67
2022-07-26T06:18:12.270Z,328.35
2022-07-26T06:18:43.713Z,332.27
2022-07-26T06:19:15.743Z,332.63
2022-07-26T06:19:48.391Z,334.83
2022-07-26T06:20:19.757Z,330.06
2022-07-26T06:20:51.706Z,345.72
2022-07-26T06:21:23.730Z,337.40
2022-07-26T06:21:55.680Z,356.98
2022-07-26T06:22:27.735Z,347.43
2022-07-26T06:22:59.786Z,318.81
2022-07-26T06:23:34.763Z,260.69
2022-07-26T06:24:03.705Z,257.15
2022-07-26T06:24:35.764Z,253.24
2022-07-26T06:25:07.727Z,268.03
2022-07-26T06:25:39.737Z,266.69
2022-07-26T06:26:11.727Z,185.22
2022-07-26T06:26:43.772Z,181.67
2022-07-26T06:27:15.675Z,219.83
2022-07-26T06:27:47.772Z,189.49
2022-07-26T06:28:19.783Z,201.24
2022-07-26T06:28:51.728Z,178.61
2022-07-26T06:29:23.774Z,189.49
2022-07-26T06:29:55.678Z,206.38
2022-07-26T06:30:27.977Z,225.10
2022-07-26T06:30:59.774Z,328.35
2022-07-26T06:31:31.757Z,351.71
2022-07-26T06:32:03.852Z,355.63
2022-07-26T06:32:35.699Z,284.92
2022-07-26T06:33:07.745Z,256.29
2022-07-26T06:33:39.737Z,247.24
2022-07-26T06:34:12.114Z,203.81
2022-07-26T06:34:43.737Z,208.58
2022-07-26T06:35:15.771Z,212.98
2022-07-26T06:35:47.739Z,218.98
2022-07-26T06:36:19.732Z,241.98
2022-07-26T06:36:51.699Z,284.55
2022-07-26T06:37:23.782Z,214.21
2022-07-26T06:37:55.773Z,214.21
2022-07-26T06:38:27.787Z,234.64
2022-07-26T06:38:59.775Z,219.83
2022-07-26T06:39:31.691Z,248.10
2022-07-26T06:40:03.786Z,298.86
2022-07-26T06:40:35.783Z,343.03
2022-07-26T06:41:07.732Z,277.58
2022-07-26T06:41:39.695Z,252.87
2022-07-26T06:42:11.699Z,266.32
2022-07-26T06:42:43.780Z,242.47
2022-07-26T06:43:15.690Z,203.81
2022-07-26T06:43:47.735Z,198.67
2022-07-26T06:44:19.833Z,197.81
2022-07-26T06:44:51.740Z,199.53
2022-07-26T06:45:23.983Z,202.59
2022-07-26T06:45:55.804Z,250.66
2022-07-26T06:46:27.757Z,201.61
2022-07-26T06:46:59.764Z,193.05
2022-07-26T06:47:31.759Z,188.64
2022-07-26T06:48:03.823Z,185.58
2022-07-26T06:48:35.841Z,183.01
2022-07-26T06:49:07.845Z,180.44
2022-07-26T06:49:39.770Z,178.61
2022-07-26T06:50:11.785Z,176.53
2022-07-26T06:50:43.740Z,175.67
2022-07-26T06:51:15.782Z,174.33
2022-07-26T06:51:47.796Z,174.33
2022-07-26T06:52:19.786Z,171.76
2022-07-26T06:52:51.738Z,170.90
2022-07-26T06:53:23.750Z,170.41
2022-07-26T06:53:55.746Z,169.56
2022-07-26T06:54:27.740Z,169.56
2022-07-26T06:54:59.739Z,170.41
2022-07-26T06:55:31.750Z,172.12
2022-07-26T06:56:03.798Z,174.33
2022-07-26T06:56:35.713Z,174.33
2022-07-26T06:57:07.763Z,172.61
2022-07-26T06:57:49.290Z,170.90
2022-07-26T06:58:11.799Z,169.07
2022-07-26T06:58:43.795Z,168.70
2022-07-26T06:59:15.751Z,168.21
2022-07-26T06:59:47.811Z,166.50
2022-07-26T07:00:19.985Z,163.44
2022-07-26T07:00:51.811Z,160.02
2022-07-26T07:01:58.660Z,157.44
2022-07-26T07:02:26.799Z,150.47
2022-07-26T07:02:58.751Z,143.99
2022-07-26T07:03:30.798Z,139.58
2022-07-26T07:04:02.750Z,137.51
2022-07-26T07:04:34.810Z,137.02
2022-07-26T07:05:06.906Z,137.51
2022-07-26T07:05:38.758Z,135.67
2022-07-26T07:06:10.811Z,132.73
2022-07-26T07:06:42.825Z,128.33
2022-07-26T07:07:14.757Z,123.56
2022-07-26T07:07:46.756Z,121.36